Champlain, Canada
Current Conditions -  °F | °C
As of 10:00 AM on Friday 19 Dec 2014 (Local Time) from CYRQ Reporting Station
Clear Clear  
Wind Chill: 11°   Ceiling: Unl
Heat Index: 21°   Visibility: 9mi
Dew Point: 12°   Wind: 9mph
Humidity: 68%   Direction: 350°N
Pressure: 30.06"   Gusts: NA
Location:  46.43°N, 72.35°W
Report Text: CYRQ 191500Z AUTO 35008KT 9SM CLR M06/M11 A3006 RMK SLP182
Loading
Personal Weather Stations






























Interactive Weather Map New forecast layout! Learn more

10-Day Weather Forecast

Advertisements
Track Severe Weather on mobile